Decoded Metar for UMII (VITEBSK in BELARUS) (IATA:VTB) | Meteo·Mobile Aviation Weather
aviador You're here:

UMII Decoded Metar

VITEBSK in BELARUS
Report Time2018-12-11 12:08:00
UTC Time2018-12-11 12:23:54
Flight Rules lifr LIFR
WindCalm
Visibility1300 m
Phenomena:Mist
Fog
Clouds:Overcast 002 Hf
Ceiling200 ft
Temp00°C (ISA -14)
Dew Point00°C (100% RH)
AAT-2.0°C
QNH1009 hPa
Density Alt-761 ft
Elevation682 ft
Report Wrong Elevation
Raw Report
SPECI UMII 111208Z 00000MPS 1300 BR OVC002 00/00 Q1009 R23/590824 TEMPO
0700 FG RMK QBB070=

Extra information for UMII:More info

Metar Taf Metar & Taf Last 4 Metars F.Rules Stats Wind Profile Meteogram Temp Stats Airport Information Weather charts Add Link Nearby VenuesMetar ALERT Operation Metar Decoded Social comments